Kliftrans — PCDB — position and weather

sailwx.info

Track history (hours):
 
Tides and Currents Weather Stations Pressure Air Temp Water Temp Dewpoint Dewpoint Depression Visibility Wind Speed Wind Dir Waves Ship Positions

Kliftrans

Last reported at 2015-Aug-01 03:24 UTC. Time now 2015-Aug-01 09:47 UTC.
Position N 53°04' E 001°02'.

Length 88 m; draft 3 m.

Type: Cargo ship. MMSI: 245132000.

Date/timePositionNaut miles runAvg speedWind from/ knotsBaromVisibWave heightAir tempDewpointWater temp
2015-Aug-01 03:24N 53°04' E 001°02'911.0
2015-Aug-01 02:34N 52°59' E 001°16'1212.1
2015-Aug-01 01:34N 52°54' E 001°34'1212.0
2015-Aug-01 00:34N 52°47' E 001°50'1111.3
2015-Jul-31 23:34N 52°36' E 001°57'9 9.5
2015-Jul-31 22:34N 52°27' E 001°55'8 8.3
2015-Jul-31 21:34N 52°19' E 001°54'8 7.9
2015-Jul-31 20:33N 52°11' E 001°52'8 8.4
2015-Jul-31 19:34N 52°03' E 001°50'9 8.7
2015-Jul-31 18:34N 51°54' E 001°48'8 7.7
2015-Jul-31 17:34N 51°49' E 001°38'1111.3
2015-Jul-31 16:34N 51°43' E 001°23'1312.5
2015-Jul-31 15:33N 51°34' E 001°08'1212.0
2015-Jul-31 14:33N 51°29' E 000°51'1413.7
2015-Jul-31 13:33N 51°30' E 000°29'8 8.4
2015-Jul-31 12:34N 51°28' E 000°15'3 3.3
2015-Jul-31 11:31N 51°29' E 000°10'0 0.0
2015-Jul-31 10:31N 51°29' E 000°10'0 0.0
2015-Jul-31 09:31N 51°29' E 000°10'0 0.0
2015-Jul-31 08:31N 51°29' E 000°10'0 0.0
2015-Jul-31 07:31N 51°29' E 000°10'0 0.0
2015-Jul-31 06:31N 51°29' E 000°10'0 0.0
2015-Jul-31 05:31N 51°29' E 000°10'0 0.0
2015-Jul-31 04:31N 51°29' E 000°10'0 0.0
2015-Jul-31 03:31N 51°29' E 000°10'0 0.0
2015-Jul-31 02:31N 51°29' E 000°10'0 0.0
2015-Jul-31 01:31N 51°29' E 000°10'0 0.0
2015-Jul-31 00:31N 51°29' E 000°10'0 0.0
2015-Jul-30 23:31N 51°29' E 000°10'0 0.0
2015-Jul-30 22:31N 51°29' E 000°10'0 0.0
2015-Jul-30 21:31N 51°29' E 000°10'0 0.0
2015-Jul-30 20:34N 51°29' E 000°10'8 7.8
2015-Jul-30 19:33N 51°27' E 000°22'1010.1
2015-Jul-30 18:33N 51°30' E 000°38'7 6.7
2015-Jul-30 17:33N 51°30' E 000°48'7 7.0
2015-Jul-30 16:33N 51°30' E 000°60'10 9.8
2015-Jul-30 15:33N 51°29' E 001°15'9 8.7
2015-Jul-30 14:33N 51°26' E 001°29'8 7.6
2015-Jul-30 13:34N 51°21' E 001°38'7 6.6
2015-Jul-30 12:33N 51°15' E 001°40'1 1.4
2015-Jul-30 11:33N 51°16' E 001°39'3 3.2
2015-Jul-30 10:33N 51°13' E 001°37'6 6.1
2015-Jul-30 09:33N 51°07' E 001°38'9 8.4
2015-Jul-30 08:33N 51°00' E 001°30'7 7.0
2015-Jul-30 07:33N 50°54' E 001°24'  
2015-Jul-27 22:07N 54°00' W 005°25'610.5
2015-Jul-27 21:33N 54°06' W 005°23'1010.4
2015-Jul-27 20:33N 54°17' W 005°21'1010.3
2015-Jul-27 19:33N 54°27' W 005°20'1111.0
2015-Jul-27 18:33N 54°37' W 005°27'9 8.9
2015-Jul-27 17:33N 54°42' W 005°39'9 9.1
2015-Jul-27 16:32N 54°38' W 005°53'1 0.2
2015-Jul-27 13:07N 54°37' W 005°55'0 0.5
2015-Jul-27 12:28N 54°37' W 005°54'0 0.0
2015-Jul-27 11:31N 54°37' W 005°54'0 0.0
2015-Jul-27 10:31N 54°37' W 005°54'0 0.0
2015-Jul-27 09:31N 54°37' W 005°54'0 0.0
2015-Jul-27 08:28N 54°37' W 005°54'0 0.0
2015-Jul-27 07:31N 54°37' W 005°54'0 0.0
2015-Jul-27 06:31N 54°37' W 005°54'0 0.0
2015-Jul-27 05:31N 54°37' W 005°54'0 0.0
2015-Jul-27 04:31N 54°37' W 005°54'0 0.0
2015-Jul-27 03:31N 54°37' W 005°54'0 0.0
2015-Jul-27 02:31N 54°37' W 005°54'0 0.0
2015-Jul-27 01:31N 54°37' W 005°54'0 0.0
2015-Jul-27 00:31N 54°37' W 005°54'0 0.0
2015-Jul-26 23:31N 54°37' W 005°54'0 0.0
2015-Jul-26 22:25N 54°37' W 005°54'0 0.0
2015-Jul-26 21:31N 54°37' W 005°54'0 0.0
2015-Jul-26 20:31N 54°37' W 005°54'0 0.0
2015-Jul-26 19:31N 54°37' W 005°54'0 0.0
2015-Jul-26 18:28N 54°37' W 005°54'0 0.0
2015-Jul-26 17:33N 54°37' W 005°54'0 0.0
2015-Jul-26 16:33N 54°37' W 005°54'0 0.0
2015-Jul-26 15:33N 54°37' W 005°54'0 0.0
2015-Jul-26 14:33N 54°37' W 005°54'0 0.0
2015-Jul-26 13:33N 54°37' W 005°54'0 0.0
2015-Jul-26 12:30N 54°37' W 005°54'0 0.0
2015-Jul-26 11:33N 54°37' W 005°54'0 0.0
2015-Jul-26 10:33N 54°37' W 005°54'0 0.0
2015-Jul-26 09:33N 54°37' W 005°54'0 0.0
2015-Jul-26 08:33N 54°37' W 005°54'0 0.0
2015-Jul-26 07:33N 54°37' W 005°54'0 0.0
2015-Jul-26 06:27N 54°37' W 005°54'0 0.0
2015-Jul-26 05:33N 54°37' W 005°54'0 0.0
2015-Jul-26 04:33N 54°37' W 005°54'0 0.0
2015-Jul-26 03:33N 54°37' W 005°54'0 0.0
2015-Jul-26 02:33N 54°37' W 005°54'0 0.0
2015-Jul-26 01:33N 54°37' W 005°54'0 0.0
2015-Jul-26 00:33N 54°37' W 005°54'0 0.0
2015-Jul-25 23:33N 54°37' W 005°54'0 0.0
2015-Jul-25 22:33N 54°37' W 005°54'0 0.0
2015-Jul-25 21:30N 54°37' W 005°54'0 0.0
2015-Jul-25 20:30N 54°37' W 005°54'0 0.0
2015-Jul-25 19:33N 54°37' W 005°54'0 0.0
2015-Jul-25 18:30N 54°37' W 005°54'0 0.0
2015-Jul-25 17:33N 54°37' W 005°54'0 0.0
2015-Jul-25 16:33N 54°37' W 005°54'0 0.0
2015-Jul-25 15:30N 54°37' W 005°54'0 0.0
2015-Jul-25 14:33N 54°37' W 005°54'0 0.0
2015-Jul-25 13:27N 54°37' W 005°54'0 0.0
2015-Jul-25 12:33N 54°37' W 005°54'0 0.0
2015-Jul-25 11:32N 54°37' W 005°54'0 0.0
2015-Jul-25 10:32N 54°37' W 005°54'0 0.0
2015-Jul-25 09:26N 54°37' W 005°54'0 0.0
2015-Jul-25 08:32N 54°37' W 005°54'0 0.0
2015-Jul-25 07:32N 54°37' W 005°54'0 0.0
2015-Jul-25 06:26N 54°37' W 005°54'0 0.0
2015-Jul-25 05:32N 54°37' W 005°54'0 0.0
2015-Jul-25 04:32N 54°37' W 005°54'0 0.0
2015-Jul-25 03:29N 54°37' W 005°54'0 0.0
2015-Jul-25 02:32N 54°37' W 005°54'0 0.0
2015-Jul-25 01:20N 54°37' W 005°54'0 0.0
2015-Jul-25 00:32N 54°37' W 005°54'0 0.0
2015-Jul-24 23:29N 54°37' W 005°54'0 0.0
2015-Jul-24 22:32N 54°37' W 005°54'0 0.0
2015-Jul-24 21:29N 54°37' W 005°54'0 0.0
2015-Jul-24 20:29N 54°37' W 005°54'0 0.0
2015-Jul-24 19:32N 54°37' W 005°54'0 0.0
2015-Jul-24 18:32N 54°37' W 005°54'0 0.0
2015-Jul-24 17:32N 54°37' W 005°54'0 0.0
2015-Jul-24 16:32N 54°37' W 005°54'0 0.0
2015-Jul-24 15:32N 54°37' W 005°54'0 0.0
2015-Jul-24 14:32N 54°37' W 005°54'0 0.1
2015-Jul-24 13:29N 54°37' W 005°54'0 0.0
2015-Jul-24 12:17N 54°37' W 005°54'0 0.0
2015-Jul-24 10:26N 54°37' W 005°54'0 0.0
2015-Jul-24 09:29N 54°37' W 005°54'0 0.0
2015-Jul-24 08:23N 54°37' W 005°54'0 0.0
2015-Jul-24 07:17N 54°37' W 005°54'0 0.0
2015-Jul-24 05:25N 54°37' W 005°54'0 0.0
2015-Jul-24 04:04N 54°37' W 005°54'0 0.0
2015-Jul-24 03:04N 54°37' W 005°54'0 0.0
2015-Jul-24 02:28N 54°37' W 005°54'0 0.0
2015-Jul-24 01:28N 54°37' W 005°54'0 0.0
2015-Jul-24 00:28N 54°37' W 005°54'0 0.0
2015-Jul-23 23:28N 54°37' W 005°54'0 0.0
2015-Jul-23 22:28N 54°37' W 005°54'0 0.0
2015-Jul-23 21:28N 54°37' W 005°54'0 0.0
2015-Jul-23 20:25N 54°37' W 005°54'0 0.0
2015-Jul-23 19:31N 54°37' W 005°54'0 0.0
2015-Jul-23 17:28N 54°37' W 005°54'0 0.0
2015-Jul-23 16:16N 54°37' W 005°54'0 0.0
2015-Jul-23 15:28N 54°37' W 005°54'0 0.0
2015-Jul-23 14:28N 54°37' W 005°54'0 0.0
2015-Jul-23 13:28N 54°37' W 005°54'0 0.0
2015-Jul-23 12:28N 54°37' W 005°54'0 0.2
2015-Jul-23 11:31N 54°37' W 005°54'0 0.0
2015-Jul-23 10:16N 54°37' W 005°54'0 0.0
2015-Jul-23 09:27N 54°37' W 005°54'0 0.0
2015-Jul-23 08:33N 54°37' W 005°54'0 0.0
2015-Jul-23 07:30N 54°37' W 005°54'0 0.0
2015-Jul-23 06:30N 54°37' W 005°54'0 0.0
2015-Jul-23 00:33N 54°37' W 005°54'0 0.0
2015-Jul-22 23:30N 54°37' W 005°54'0 0.0
2015-Jul-22 22:33N 54°37' W 005°54'0 0.0
2015-Jul-22 21:33N 54°37' W 005°54'0 0.0
2015-Jul-22 20:33N 54°37' W 005°54'0 0.0
2015-Jul-22 19:33N 54°37' W 005°54'0 0.0
2015-Jul-22 18:24N 54°37' W 005°54'0 0.0
2015-Jul-22 17:33N 54°37' W 005°54'0 0.0
2015-Jul-22 16:33N 54°37' W 005°54'0 0.0
2015-Jul-22 15:24N 54°37' W 005°54'0 0.0
2015-Jul-22 14:33N 54°37' W 005°54'0 0.0
2015-Jul-22 09:27N 54°37' W 005°54'0 0.0
2015-Jul-22 08:12N 54°37' W 005°54'0 0.0
2015-Jul-22 07:18N 54°37' W 005°54'0 0.0
2015-Jul-22 06:30N 54°37' W 005°54'0 0.0
2015-Jul-22 05:30N 54°37' W 005°54'0 0.0
2015-Jul-22 04:33N 54°37' W 005°54'  
Track history (hours):
 
Tides and Currents Weather Stations Pressure Air Temp Water Temp Dewpoint Dewpoint Depression Visibility Wind Speed Wind Dir Waves Ship Positions

Kliftrans

Last reported at 2015-Aug-01 03:24 UTC. Time now 2015-Aug-01 09:47 UTC.
Position N 53°04' E 001°02'.

Length 88 m; draft 3 m.

Type: Cargo ship. MMSI: 245132000.

Date/timePositionNaut miles runAvg speedWind from/ knotsBaromVisibWave heightAir tempDewpointWater temp
2015-Aug-01 03:24N 53°04' E 001°02'911.0
2015-Aug-01 02:34N 52°59' E 001°16'1212.1
2015-Aug-01 01:34N 52°54' E 001°34'1212.0
2015-Aug-01 00:34N 52°47' E 001°50'1111.3
2015-Jul-31 23:34N 52°36' E 001°57'9 9.5
2015-Jul-31 22:34N 52°27' E 001°55'8 8.3
2015-Jul-31 21:34N 52°19' E 001°54'8 7.9
2015-Jul-31 20:33N 52°11' E 001°52'8 8.4
2015-Jul-31 19:34N 52°03' E 001°50'9 8.7
2015-Jul-31 18:34N 51°54' E 001°48'8 7.7
2015-Jul-31 17:34N 51°49' E 001°38'1111.3
2015-Jul-31 16:34N 51°43' E 001°23'1312.5
2015-Jul-31 15:33N 51°34' E 001°08'1212.0
2015-Jul-31 14:33N 51°29' E 000°51'1413.7
2015-Jul-31 13:33N 51°30' E 000°29'8 8.4
2015-Jul-31 12:34N 51°28' E 000°15'3 3.3
2015-Jul-31 11:31N 51°29' E 000°10'0 0.0
2015-Jul-31 10:31N 51°29' E 000°10'0 0.0
2015-Jul-31 09:31N 51°29' E 000°10'0 0.0
2015-Jul-31 08:31N 51°29' E 000°10'0 0.0
2015-Jul-31 07:31N 51°29' E 000°10'0 0.0
2015-Jul-31 06:31N 51°29' E 000°10'0 0.0
2015-Jul-31 05:31N 51°29' E 000°10'0 0.0
2015-Jul-31 04:31N 51°29' E 000°10'0 0.0
2015-Jul-31 03:31N 51°29' E 000°10'0 0.0
2015-Jul-31 02:31N 51°29' E 000°10'0 0.0
2015-Jul-31 01:31N 51°29' E 000°10'0 0.0
2015-Jul-31 00:31N 51°29' E 000°10'0 0.0
2015-Jul-30 23:31N 51°29' E 000°10'0 0.0
2015-Jul-30 22:31N 51°29' E 000°10'0 0.0
2015-Jul-30 21:31N 51°29' E 000°10'0 0.0
2015-Jul-30 20:34N 51°29' E 000°10'8 7.8
2015-Jul-30 19:33N 51°27' E 000°22'1010.1
2015-Jul-30 18:33N 51°30' E 000°38'7 6.7
2015-Jul-30 17:33N 51°30' E 000°48'7 7.0
2015-Jul-30 16:33N 51°30' E 000°60'10 9.8
2015-Jul-30 15:33N 51°29' E 001°15'9 8.7
2015-Jul-30 14:33N 51°26' E 001°29'8 7.6
2015-Jul-30 13:34N 51°21' E 001°38'7 6.6
2015-Jul-30 12:33N 51°15' E 001°40'1 1.4
2015-Jul-30 11:33N 51°16' E 001°39'3 3.2
2015-Jul-30 10:33N 51°13' E 001°37'6 6.1
2015-Jul-30 09:33N 51°07' E 001°38'9 8.4
2015-Jul-30 08:33N 51°00' E 001°30'7 7.0
2015-Jul-30 07:33N 50°54' E 001°24'  
2015-Jul-27 22:07N 54°00' W 005°25'610.5
2015-Jul-27 21:33N 54°06' W 005°23'1010.4
2015-Jul-27 20:33N 54°17' W 005°21'1010.3
2015-Jul-27 19:33N 54°27' W 005°20'1111.0
2015-Jul-27 18:33N 54°37' W 005°27'9 8.9
2015-Jul-27 17:33N 54°42' W 005°39'9 9.1
2015-Jul-27 16:32N 54°38' W 005°53'1 0.2
2015-Jul-27 13:07N 54°37' W 005°55'0 0.5
2015-Jul-27 12:28N 54°37' W 005°54'0 0.0
2015-Jul-27 11:31N 54°37' W 005°54'0 0.0
2015-Jul-27 10:31N 54°37' W 005°54'0 0.0
2015-Jul-27 09:31N 54°37' W 005°54'0 0.0
2015-Jul-27 08:28N 54°37' W 005°54'0 0.0
2015-Jul-27 07:31N 54°37' W 005°54'0 0.0
2015-Jul-27 06:31N 54°37' W 005°54'0 0.0
2015-Jul-27 05:31N 54°37' W 005°54'0 0.0
2015-Jul-27 04:31N 54°37' W 005°54'0 0.0
2015-Jul-27 03:31N 54°37' W 005°54'0 0.0
2015-Jul-27 02:31N 54°37' W 005°54'0 0.0
2015-Jul-27 01:31N 54°37' W 005°54'0 0.0
2015-Jul-27 00:31N 54°37' W 005°54'0 0.0
2015-Jul-26 23:31N 54°37' W 005°54'0 0.0
2015-Jul-26 22:25N 54°37' W 005°54'0 0.0
2015-Jul-26 21:31N 54°37' W 005°54'0 0.0
2015-Jul-26 20:31N 54°37' W 005°54'0 0.0
2015-Jul-26 19:31N 54°37' W 005°54'0 0.0
2015-Jul-26 18:28N 54°37' W 005°54'0 0.0
2015-Jul-26 17:33N 54°37' W 005°54'0 0.0
2015-Jul-26 16:33N 54°37' W 005°54'0 0.0
2015-Jul-26 15:33N 54°37' W 005°54'0 0.0
2015-Jul-26 14:33N 54°37' W 005°54'0 0.0
2015-Jul-26 13:33N 54°37' W 005°54'0 0.0
2015-Jul-26 12:30N 54°37' W 005°54'0 0.0
2015-Jul-26 11:33N 54°37' W 005°54'0 0.0
2015-Jul-26 10:33N 54°37' W 005°54'0 0.0
2015-Jul-26 09:33N 54°37' W 005°54'0 0.0
2015-Jul-26 08:33N 54°37' W 005°54'0 0.0
2015-Jul-26 07:33N 54°37' W 005°54'0 0.0
2015-Jul-26 06:27N 54°37' W 005°54'0 0.0
2015-Jul-26 05:33N 54°37' W 005°54'0 0.0
2015-Jul-26 04:33N 54°37' W 005°54'0 0.0
2015-Jul-26 03:33N 54°37' W 005°54'0 0.0
2015-Jul-26 02:33N 54°37' W 005°54'0 0.0
2015-Jul-26 01:33N 54°37' W 005°54'0 0.0
2015-Jul-26 00:33N 54°37' W 005°54'0 0.0
2015-Jul-25 23:33N 54°37' W 005°54'0 0.0
2015-Jul-25 22:33N 54°37' W 005°54'0 0.0
2015-Jul-25 21:30N 54°37' W 005°54'0 0.0
2015-Jul-25 20:30N 54°37' W 005°54'0 0.0
2015-Jul-25 19:33N 54°37' W 005°54'0 0.0
2015-Jul-25 18:30N 54°37' W 005°54'0 0.0
2015-Jul-25 17:33N 54°37' W 005°54'0 0.0
2015-Jul-25 16:33N 54°37' W 005°54'0 0.0
2015-Jul-25 15:30N 54°37' W 005°54'0 0.0
2015-Jul-25 14:33N 54°37' W 005°54'0 0.0
2015-Jul-25 13:27N 54°37' W 005°54'0 0.0
2015-Jul-25 12:33N 54°37' W 005°54'0 0.0
2015-Jul-25 11:32N 54°37' W 005°54'0 0.0
2015-Jul-25 10:32N 54°37' W 005°54'0 0.0
2015-Jul-25 09:26N 54°37' W 005°54'0 0.0
2015-Jul-25 08:32N 54°37' W 005°54'0 0.0
2015-Jul-25 07:32N 54°37' W 005°54'0 0.0
2015-Jul-25 06:26N 54°37' W 005°54'0 0.0
2015-Jul-25 05:32N 54°37' W 005°54'0 0.0
2015-Jul-25 04:32N 54°37' W 005°54'0 0.0
2015-Jul-25 03:29N 54°37' W 005°54'0 0.0
2015-Jul-25 02:32N 54°37' W 005°54'0 0.0
2015-Jul-25 01:20N 54°37' W 005°54'0 0.0
2015-Jul-25 00:32N 54°37' W 005°54'0 0.0
2015-Jul-24 23:29N 54°37' W 005°54'0 0.0
2015-Jul-24 22:32N 54°37' W 005°54'0 0.0
2015-Jul-24 21:29N 54°37' W 005°54'0 0.0
2015-Jul-24 20:29N 54°37' W 005°54'0 0.0
2015-Jul-24 19:32N 54°37' W 005°54'0 0.0
2015-Jul-24 18:32N 54°37' W 005°54'0 0.0
2015-Jul-24 17:32N 54°37' W 005°54'0 0.0
2015-Jul-24 16:32N 54°37' W 005°54'0 0.0
2015-Jul-24 15:32N 54°37' W 005°54'0 0.0
2015-Jul-24 14:32N 54°37' W 005°54'0 0.1
2015-Jul-24 13:29N 54°37' W 005°54'0 0.0
2015-Jul-24 12:17N 54°37' W 005°54'0 0.0
2015-Jul-24 10:26N 54°37' W 005°54'0 0.0
2015-Jul-24 09:29N 54°37' W 005°54'0 0.0
2015-Jul-24 08:23N 54°37' W 005°54'0 0.0
2015-Jul-24 07:17N 54°37' W 005°54'0 0.0
2015-Jul-24 05:25N 54°37' W 005°54'0 0.0
2015-Jul-24 04:04N 54°37' W 005°54'0 0.0
2015-Jul-24 03:04N 54°37' W 005°54'0 0.0
2015-Jul-24 02:28N 54°37' W 005°54'0 0.0
2015-Jul-24 01:28N 54°37' W 005°54'0 0.0
2015-Jul-24 00:28N 54°37' W 005°54'0 0.0
2015-Jul-23 23:28N 54°37' W 005°54'0 0.0
2015-Jul-23 22:28N 54°37' W 005°54'0 0.0
2015-Jul-23 21:28N 54°37' W 005°54'0 0.0
2015-Jul-23 20:25N 54°37' W 005°54'0 0.0
2015-Jul-23 19:31N 54°37' W 005°54'0 0.0
2015-Jul-23 17:28N 54°37' W 005°54'0 0.0
2015-Jul-23 16:16N 54°37' W 005°54'0 0.0
2015-Jul-23 15:28N 54°37' W 005°54'0 0.0
2015-Jul-23 14:28N 54°37' W 005°54'0 0.0
2015-Jul-23 13:28N 54°37' W 005°54'0 0.0
2015-Jul-23 12:28N 54°37' W 005°54'0 0.2
2015-Jul-23 11:31N 54°37' W 005°54'0 0.0
2015-Jul-23 10:16N 54°37' W 005°54'0 0.0
2015-Jul-23 09:27N 54°37' W 005°54'0 0.0
2015-Jul-23 08:33N 54°37' W 005°54'0 0.0
2015-Jul-23 07:30N 54°37' W 005°54'0 0.0
2015-Jul-23 06:30N 54°37' W 005°54'0 0.0
2015-Jul-23 00:33N 54°37' W 005°54'0 0.0
2015-Jul-22 23:30N 54°37' W 005°54'0 0.0
2015-Jul-22 22:33N 54°37' W 005°54'0 0.0
2015-Jul-22 21:33N 54°37' W 005°54'0 0.0
2015-Jul-22 20:33N 54°37' W 005°54'0 0.0
2015-Jul-22 19:33N 54°37' W 005°54'0 0.0
2015-Jul-22 18:24N 54°37' W 005°54'0 0.0
2015-Jul-22 17:33N 54°37' W 005°54'0 0.0
2015-Jul-22 16:33N 54°37' W 005°54'0 0.0
2015-Jul-22 15:24N 54°37' W 005°54'0 0.0
2015-Jul-22 14:33N 54°37' W 005°54'0 0.0
2015-Jul-22 09:27N 54°37' W 005°54'0 0.0
2015-Jul-22 08:12N 54°37' W 005°54'0 0.0
2015-Jul-22 07:18N 54°37' W 005°54'0 0.0
2015-Jul-22 06:30N 54°37' W 005°54'0 0.0
2015-Jul-22 05:30N 54°37' W 005°54'0 0.0
2015-Jul-22 04:33N 54°37' W 005°54'  

Dump ship's entire track history